createdAt,value
2018-09-03T00:00:57.368Z,15.23
2018-09-03T00:03:24.953Z,14.97
2018-09-03T00:05:52.721Z,16.00
2018-09-03T00:08:21.333Z,13.73
2018-09-03T00:10:48.943Z,12.97
2018-09-03T00:13:17.270Z,13.37
2018-09-03T00:15:44.839Z,15.00
2018-09-03T00:18:12.399Z,12.77
2018-09-03T00:20:40.733Z,12.03
2018-09-03T00:23:08.289Z,11.70
2018-09-03T00:25:35.844Z,12.00
2018-09-03T00:28:03.421Z,12.27
2018-09-03T00:30:30.993Z,10.57
2018-09-03T00:33:04.258Z,10.23
2018-09-03T00:38:44.222Z,11.97
2018-09-03T00:44:26.009Z,11.30
2018-09-03T00:46:55.298Z,13.30
2018-09-03T00:49:23.631Z,12.63
2018-09-03T00:51:51.192Z,12.87
2018-09-03T00:54:18.753Z,14.83
2018-09-03T00:56:48.275Z,18.33
2018-09-03T00:59:15.842Z,18.20
2018-09-03T01:01:44.408Z,18.17
2018-09-03T01:04:11.977Z,17.87
2018-09-03T01:06:39.578Z,18.37
2018-09-03T01:09:07.149Z,21.20
2018-09-03T01:11:36.624Z,21.00
2018-09-03T01:14:04.185Z,21.27
2018-09-03T01:16:31.744Z,24.57
2018-09-03T01:18:59.302Z,24.23
2018-09-03T01:21:26.869Z,24.23
2018-09-03T01:23:54.433Z,21.50
2018-09-03T01:26:22.002Z,21.33
2018-09-03T01:28:49.565Z,20.40
2018-09-03T01:31:17.125Z,21.60
2018-09-03T01:33:44.689Z,20.03
2018-09-03T01:36:12.249Z,19.73
2018-09-03T01:38:41.757Z,20.60
2018-09-03T01:41:09.321Z,19.80
2018-09-03T01:43:38.825Z,21.00
2018-09-03T01:46:06.384Z,20.90
2018-09-03T01:48:35.885Z,20.50
2018-09-03T01:51:03.441Z,23.90
2018-09-03T01:53:30.999Z,21.40
2018-09-03T01:55:58.565Z,22.93
2018-09-03T01:58:26.124Z,20.07
2018-09-03T02:00:53.685Z,20.47
2018-09-03T02:03:33.895Z,20.13
2018-09-03T02:06:03.366Z,18.80
2018-09-03T02:08:30.929Z,19.90
2018-09-03T02:10:58.496Z,20.50
2018-09-03T02:13:26.059Z,18.63
2018-09-03T02:15:53.621Z,20.40
2018-09-03T02:18:21.184Z,20.33
2018-09-03T02:20:48.745Z,19.30
2018-09-03T02:23:16.297Z,20.13
2018-09-03T02:25:43.857Z,19.70
2018-09-03T02:28:11.417Z,20.07
2018-09-03T02:30:38.979Z,19.87
2018-09-03T02:33:07.501Z,19.87
2018-09-03T02:35:37.756Z,20.60
2018-09-03T02:38:05.316Z,22.77
2018-09-03T02:40:34.841Z,21.50
2018-09-03T02:43:02.400Z,21.80
2018-09-03T02:45:29.956Z,20.23
2018-09-03T02:47:57.514Z,20.03
2018-09-03T02:50:26.037Z,19.60
2018-09-03T02:52:53.600Z,19.90
2018-09-03T02:55:21.935Z,19.80
2018-09-03T02:57:49.497Z,19.67
2018-09-03T03:00:17.056Z,20.00
2018-09-03T03:02:44.624Z,18.67
2018-09-03T03:05:14.129Z,19.67
2018-09-03T03:07:41.688Z,18.57
2018-09-03T03:10:09.256Z,20.30
2018-09-03T03:12:39.543Z,21.50
2018-09-03T03:15:07.122Z,21.70
2018-09-03T03:17:34.680Z,22.13
2018-09-03T03:20:02.242Z,22.27
2018-09-03T03:22:29.817Z,23.07
2018-09-03T03:24:59.085Z,23.60
2018-09-03T03:27:26.646Z,25.03
2018-09-03T03:29:54.207Z,26.10
2018-09-03T03:32:23.705Z,24.80
2018-09-03T03:34:51.266Z,26.60
2018-09-03T03:37:18.834Z,24.73
2018-09-03T03:39:49.112Z,24.30
2018-09-03T03:42:16.665Z,24.27
2018-09-03T03:44:44.229Z,21.63
2018-09-03T03:47:12.745Z,20.70
2018-09-03T03:49:40.335Z,21.33
2018-09-03T03:52:07.907Z,20.07
2018-09-03T03:54:35.469Z,14.60
2018-09-03T03:57:03.037Z,13.53
2018-09-03T03:59:30.609Z,12.40
2018-09-03T04:01:58.203Z,11.30
2018-09-03T04:04:25.765Z,12.20
2018-09-03T04:06:54.089Z,12.10
2018-09-03T04:09:21.651Z,9.40
2018-09-03T04:11:49.249Z,9.00
2018-09-03T04:14:16.804Z,9.17
2018-09-03T04:16:45.137Z,11.40
2018-09-03T04:19:12.701Z,16.50
2018-09-03T04:21:40.265Z,15.87
2018-09-03T04:24:08.756Z,13.40
2018-09-03T04:26:36.322Z,14.20
2018-09-03T04:29:03.887Z,12.63
2018-09-03T04:31:31.449Z,12.40
2018-09-03T04:33:59.778Z,11.60
2018-09-03T04:36:27.341Z,11.33
2018-09-03T04:38:56.856Z,10.43
2018-09-03T04:41:24.425Z,10.00
2018-09-03T04:43:51.993Z,10.50
2018-09-03T04:46:19.557Z,9.27
2018-09-03T04:48:47.890Z,12.40
2018-09-03T04:51:17.405Z,14.00
2018-09-03T04:53:44.972Z,12.00
2018-09-03T04:56:13.515Z,13.50
2018-09-03T04:58:41.073Z,14.57
2018-09-03T05:01:08.641Z,13.80
2018-09-03T05:03:36.198Z,14.80
2018-09-03T05:06:03.791Z,13.73
2018-09-03T05:08:31.349Z,14.10
2018-09-03T05:10:58.919Z,14.40
2018-09-03T05:13:26.476Z,14.60
2018-09-03T05:15:54.806Z,14.70
2018-09-03T05:18:22.377Z,15.17
2018-09-03T05:20:49.945Z,14.80
2018-09-03T05:23:17.508Z,13.90
2018-09-03T05:25:45.074Z,15.07
2018-09-03T05:28:12.629Z,14.70
2018-09-03T05:30:40.244Z,14.07
2018-09-03T05:33:07.813Z,14.50
2018-09-03T05:35:35.401Z,13.97
2018-09-03T05:38:02.965Z,14.20
2018-09-03T05:40:30.530Z,14.37
2018-09-03T05:42:58.918Z,14.63
2018-09-03T05:45:26.457Z,15.90
2018-09-03T05:47:54.780Z,13.67
2018-09-03T05:50:22.379Z,16.03
2018-09-03T05:52:49.925Z,14.13
2018-09-03T05:55:17.492Z,13.73
2018-09-03T05:57:45.056Z,12.50
2018-09-03T06:00:12.625Z,12.10
2018-09-03T06:02:40.956Z,10.60
2018-09-03T06:05:09.109Z,8.98
2018-09-03T06:07:36.673Z,9.50
2018-09-03T06:10:05.189Z,9.70
2018-09-03T06:12:32.748Z,10.07
2018-09-03T06:15:01.234Z,10.33
2018-09-03T06:17:28.803Z,10.93
2018-09-03T06:19:56.368Z,13.10
2018-09-03T06:22:25.658Z,11.33
2018-09-03T06:24:53.993Z,12.93
2018-09-03T06:27:21.565Z,12.93
2018-09-03T06:29:50.043Z,12.27
2018-09-03T06:32:17.608Z,12.03
2018-09-03T06:34:45.165Z,12.63
2018-09-03T06:37:12.751Z,13.00
2018-09-03T06:39:40.357Z,11.53
2018-09-03T06:42:07.933Z,13.80
2018-09-03T06:44:35.500Z,12.50
2018-09-03T06:47:03.071Z,11.60
2018-09-03T06:49:30.648Z,11.87
2018-09-03T06:51:58.212Z,11.63
2018-09-03T06:54:25.777Z,12.93
2018-09-03T06:56:53.336Z,13.73
2018-09-03T06:59:20.902Z,12.43
2018-09-03T07:01:48.470Z,11.77
2018-09-03T07:04:16.030Z,12.27
2018-09-03T07:06:43.621Z,11.87
2018-09-03T07:09:11.187Z,13.53
2018-09-03T07:11:38.753Z,12.82
2018-09-03T07:14:07.090Z,12.60
2018-09-03T07:16:34.653Z,13.03
2018-09-03T07:19:02.217Z,11.73
2018-09-03T07:21:29.784Z,18.47
2018-09-03T07:23:57.346Z,12.27
2018-09-03T07:26:24.913Z,11.50
2018-09-03T07:28:52.495Z,10.10
2018-09-03T07:31:20.068Z,9.87
2018-09-03T07:33:47.631Z,9.93
2018-09-03T07:36:15.201Z,11.53
2018-09-03T07:38:44.701Z,10.90
2018-09-03T07:41:12.287Z,12.30
2018-09-03T07:43:39.861Z,14.00
2018-09-03T07:46:07.426Z,11.50
2018-09-03T07:48:35.786Z,13.50
2018-09-03T07:51:04.207Z,12.43
2018-09-03T07:53:31.705Z,11.90
2018-09-03T07:55:59.268Z,12.23
2018-09-03T07:58:27.833Z,11.10
2018-09-03T08:00:55.408Z,10.20
2018-09-03T08:03:23.030Z,9.50
2018-09-03T08:05:50.592Z,11.10
2018-09-03T08:08:20.109Z,11.67
2018-09-03T08:10:47.674Z,12.00
2018-09-03T08:13:15.229Z,9.83
2018-09-03T08:15:42.789Z,10.70
2018-09-03T08:18:10.358Z,10.20
2018-09-03T08:20:38.928Z,10.20
2018-09-03T08:23:06.485Z,8.80
2018-09-03T08:25:34.972Z,9.90
2018-09-03T08:28:02.541Z,9.10
2018-09-03T08:30:30.882Z,9.73
2018-09-03T08:32:58.441Z,10.47
2018-09-03T08:35:26.003Z,8.17
2018-09-03T08:37:53.582Z,7.80
2018-09-03T08:40:22.879Z,9.90
2018-09-03T08:42:50.446Z,9.63
2018-09-03T08:45:18.008Z,9.83
2018-09-03T08:47:46.341Z,11.20
2018-09-03T08:50:13.933Z,12.60
2018-09-03T08:52:43.438Z,12.40
2018-09-03T08:55:11.773Z,11.80
2018-09-03T08:57:39.346Z,12.20
2018-09-03T09:00:06.918Z,12.00
2018-09-03T09:02:35.068Z,12.03
2018-09-03T09:05:02.629Z,10.03
2018-09-03T09:07:30.198Z,10.30
2018-09-03T09:09:57.770Z,11.20
2018-09-03T09:12:26.105Z,11.87
2018-09-03T09:14:54.593Z,10.37
2018-09-03T09:17:24.132Z,9.90
2018-09-03T09:19:52.462Z,9.07
2018-09-03T09:22:20.035Z,9.73
2018-09-03T09:24:47.599Z,9.30
2018-09-03T09:27:15.165Z,10.70
2018-09-03T09:29:42.736Z,10.53
2018-09-03T09:32:10.305Z,9.57
2018-09-03T09:34:37.879Z,10.33
2018-09-03T09:37:06.353Z,9.67
2018-09-03T09:39:33.947Z,9.73
2018-09-03T09:42:01.500Z,10.33
2018-09-03T09:44:29.059Z,10.60
2018-09-03T09:46:56.665Z,9.40
2018-09-03T09:49:24.244Z,9.53
2018-09-03T09:51:51.820Z,10.03
2018-09-03T09:54:19.376Z,10.00
2018-09-03T09:56:46.962Z,9.80
2018-09-03T09:59:14.538Z,10.80
2018-09-03T10:01:44.017Z,9.80
2018-09-03T10:04:11.638Z,10.20
2018-09-03T10:06:39.925Z,9.80
2018-09-03T10:09:07.493Z,10.53
2018-09-03T10:11:35.061Z,10.63
2018-09-03T10:14:02.640Z,10.63
2018-09-03T10:16:30.197Z,9.57
2018-09-03T10:18:57.758Z,8.87
2018-09-03T10:21:25.341Z,10.20
2018-09-03T10:23:52.902Z,8.97
2018-09-03T10:26:20.560Z,9.63
2018-09-03T10:28:48.060Z,9.07
2018-09-03T10:31:15.622Z,9.87
2018-09-03T10:33:43.172Z,8.90
2018-09-03T10:36:10.941Z,10.13
2018-09-03T10:38:38.517Z,9.90
2018-09-03T10:41:06.113Z,8.63
2018-09-03T10:43:33.680Z,8.90
2018-09-03T10:46:01.251Z,8.87
2018-09-03T10:48:28.817Z,8.00
2018-09-03T10:50:56.381Z,7.30
2018-09-03T10:53:23.960Z,7.80
2018-09-03T10:55:53.468Z,7.10
2018-09-03T10:58:21.033Z,7.33
2018-09-03T11:00:48.616Z,7.40
2018-09-03T11:03:16.174Z,7.97
2018-09-03T11:05:43.739Z,7.60
2018-09-03T11:08:13.237Z,8.10
2018-09-03T11:10:40.806Z,7.33
2018-09-03T11:13:08.423Z,7.97
2018-09-03T11:15:35.959Z,7.90
2018-09-03T11:18:03.518Z,7.67
2018-09-03T11:20:31.085Z,8.80
2018-09-03T11:22:58.650Z,9.07
2018-09-03T11:25:27.165Z,7.90
2018-09-03T11:27:54.741Z,7.33
2018-09-03T11:30:22.301Z,7.23
2018-09-03T11:32:49.862Z,6.60
2018-09-03T11:35:18.450Z,7.83
2018-09-03T11:37:46.010Z,7.17
2018-09-03T11:40:13.565Z,13.63
2018-09-03T11:42:41.121Z,6.87
2018-09-03T11:45:08.681Z,6.47
2018-09-03T11:47:36.250Z,6.60
2018-09-03T11:50:03.815Z,6.10
2018-09-03T11:52:31.390Z,5.60
2018-09-03T11:54:58.949Z,6.17
2018-09-03T11:57:26.510Z,6.17
2018-09-03T11:59:54.843Z,5.30
2018-09-03T12:02:22.400Z,7.07
2018-09-03T12:04:50.873Z,5.70
2018-09-03T12:07:18.439Z,5.30
2018-09-03T12:09:46.955Z,6.20
2018-09-03T12:12:16.453Z,6.47
2018-09-03T12:14:44.774Z,5.47
2018-09-03T12:17:12.338Z,4.60
2018-09-03T12:19:40.820Z,5.10
2018-09-03T12:22:08.387Z,4.90
2018-09-03T12:24:35.953Z,5.10
2018-09-03T12:27:03.518Z,4.47
2018-09-03T12:29:31.081Z,4.70
2018-09-03T12:31:58.654Z,5.07
2018-09-03T12:34:26.214Z,4.70
2018-09-03T12:36:53.795Z,5.43
2018-09-03T12:39:21.354Z,4.90
2018-09-03T12:41:48.913Z,4.13
2018-09-03T12:44:16.469Z,5.20
2018-09-03T12:46:46.027Z,4.40
2018-09-03T12:49:13.594Z,4.27
2018-09-03T12:51:41.150Z,5.40
2018-09-03T12:54:08.717Z,4.73
2018-09-03T12:56:37.038Z,4.60
2018-09-03T12:59:06.554Z,4.20
2018-09-03T13:01:36.004Z,4.53
2018-09-03T13:04:04.328Z,5.37
2018-09-03T13:06:31.891Z,4.03
2018-09-03T13:08:59.453Z,4.80
2018-09-03T13:11:27.054Z,4.37
2018-09-03T13:13:56.273Z,3.90
2018-09-03T13:16:24.774Z,4.03
2018-09-03T13:18:52.384Z,4.27
2018-09-03T13:21:19.929Z,4.50
2018-09-03T13:23:48.261Z,4.03
2018-09-03T13:26:15.824Z,4.90
2018-09-03T13:28:43.385Z,3.87
2018-09-03T13:31:10.951Z,4.23
2018-09-03T13:33:38.513Z,4.07
2018-09-03T13:36:06.142Z,3.50
2018-09-03T13:38:33.645Z,3.80
2018-09-03T13:41:02.161Z,4.00
2018-09-03T13:43:30.688Z,3.80
2018-09-03T13:45:58.257Z,3.30
2018-09-03T13:48:25.822Z,3.60
2018-09-03T13:50:53.394Z,3.87
2018-09-03T13:53:21.734Z,2.90
2018-09-03T13:55:49.294Z,3.17
2018-09-03T13:58:16.865Z,3.83
2018-09-03T14:00:44.429Z,3.33
2018-09-03T14:03:12.760Z,3.63
2018-09-03T14:05:40.321Z,3.80
2018-09-03T14:08:07.879Z,3.53
2018-09-03T14:10:35.443Z,3.40
2018-09-03T14:13:03.025Z,3.17
2018-09-03T14:15:32.540Z,3.00
2018-09-03T14:18:00.865Z,3.17
2018-09-03T14:20:28.436Z,2.90
2018-09-03T14:22:56.017Z,3.60
2018-09-03T14:25:24.587Z,3.12
2018-09-03T14:27:52.154Z,3.70
2018-09-03T14:30:21.670Z,3.70
2018-09-03T14:32:50.006Z,3.50
2018-09-03T14:35:17.575Z,3.30
2018-09-03T14:37:47.096Z,3.50
2018-09-03T14:40:14.661Z,2.80
2018-09-03T14:42:42.235Z,3.67
2018-09-03T14:45:10.744Z,2.90
2018-09-03T14:47:38.314Z,3.00
2018-09-03T14:50:05.888Z,3.57
2018-09-03T14:52:33.445Z,3.13
2018-09-03T14:55:01.016Z,3.10
2018-09-03T14:57:28.578Z,3.07
2018-09-03T14:59:57.215Z,3.20
2018-09-03T15:02:24.875Z,2.77
2018-09-03T15:04:52.352Z,3.63
2018-09-03T15:07:19.915Z,3.57
2018-09-03T15:09:47.485Z,3.33
2018-09-03T15:12:15.050Z,2.77
2018-09-03T15:14:44.373Z,2.90
2018-09-03T15:17:11.949Z,3.00
2018-09-03T15:19:39.522Z,2.70
2018-09-03T15:22:07.104Z,2.43
2018-09-03T15:24:34.678Z,2.33
2018-09-03T15:27:03.542Z,2.97
2018-09-03T15:29:31.120Z,3.40
2018-09-03T15:31:58.685Z,2.87
2018-09-03T15:34:27.014Z,2.77
2018-09-03T15:36:54.591Z,2.67
2018-09-03T15:39:22.154Z,2.77
2018-09-03T15:41:50.708Z,3.00
2018-09-03T15:44:18.266Z,3.30
2018-09-03T15:46:47.737Z,2.80
2018-09-03T15:49:15.303Z,3.60
2018-09-03T15:51:42.872Z,2.77
2018-09-03T15:54:10.466Z,3.17
2018-09-03T15:56:38.049Z,2.87
2018-09-03T15:59:05.605Z,2.90
2018-09-03T16:01:33.931Z,3.03
2018-09-03T16:04:01.493Z,2.90
2018-09-03T16:06:29.057Z,2.80
2018-09-03T16:08:58.559Z,2.37
2018-09-03T16:11:26.121Z,2.63
2018-09-03T16:13:53.681Z,2.80
2018-09-03T16:16:21.245Z,2.90
2018-09-03T16:18:48.807Z,2.67
2018-09-03T16:21:16.399Z,2.93
2018-09-03T16:23:43.960Z,2.97
2018-09-03T16:26:11.525Z,2.90
2018-09-03T16:28:41.037Z,3.10
2018-09-03T16:31:08.602Z,2.97
2018-09-03T16:33:36.162Z,3.30
2018-09-03T16:36:04.346Z,3.60
2018-09-03T16:38:31.957Z,3.20
2018-09-03T16:40:59.521Z,2.77
2018-09-03T16:43:27.077Z,3.23
2018-09-03T16:45:54.632Z,3.07
2018-09-03T16:48:23.159Z,3.50
2018-09-03T16:50:50.713Z,3.00
2018-09-03T16:53:18.265Z,3.50
2018-09-03T16:55:45.829Z,3.97
2018-09-03T16:58:13.385Z,3.77
2018-09-03T17:00:40.937Z,3.80
2018-09-03T17:03:08.497Z,3.67
2018-09-03T17:05:36.066Z,3.43
2018-09-03T17:08:03.730Z,3.50
2018-09-03T17:10:31.193Z,3.30
2018-09-03T17:12:58.744Z,3.40
2018-09-03T17:15:26.308Z,3.40
2018-09-03T17:17:53.861Z,3.20
2018-09-03T17:20:21.448Z,2.90
2018-09-03T17:22:49.771Z,3.00
2018-09-03T17:25:19.259Z,3.07
2018-09-03T17:27:47.729Z,3.47
2018-09-03T17:30:15.285Z,3.33
2018-09-03T17:32:42.842Z,3.40
2018-09-03T17:35:10.408Z,4.00
2018-09-03T17:37:37.969Z,4.67
2018-09-03T17:40:05.525Z,4.60
2018-09-03T17:42:33.085Z,6.17
2018-09-03T17:45:01.597Z,6.33
2018-09-03T17:47:29.164Z,6.90
2018-09-03T17:49:56.725Z,6.80
2018-09-03T17:52:24.277Z,6.30
2018-09-03T17:54:51.838Z,6.87
2018-09-03T17:57:19.409Z,5.60
2018-09-03T17:59:47.749Z,6.20
2018-09-03T18:02:15.313Z,6.47
2018-09-03T18:04:42.890Z,5.80
2018-09-03T18:07:11.420Z,4.60
2018-09-03T18:09:38.992Z,3.43
2018-09-03T18:12:06.577Z,4.20
2018-09-03T18:14:34.922Z,3.70
2018-09-03T18:17:02.483Z,3.50
2018-09-03T18:19:30.045Z,3.03
2018-09-03T18:21:57.600Z,3.60
2018-09-03T18:24:25.165Z,4.50
2018-09-03T18:26:52.729Z,3.93
2018-09-03T18:29:20.290Z,3.17
2018-09-03T18:31:47.851Z,3.63
2018-09-03T18:34:15.404Z,3.73
2018-09-03T18:36:42.969Z,4.30
2018-09-03T18:39:10.522Z,3.80
2018-09-03T18:41:40.048Z,4.23
2018-09-03T18:44:07.625Z,4.13
2018-09-03T18:46:35.187Z,4.03
2018-09-03T18:49:03.673Z,4.07
2018-09-03T18:51:31.229Z,3.67
2018-09-03T18:53:58.799Z,3.77
2018-09-03T18:56:26.361Z,3.30
2018-09-03T18:58:53.925Z,3.60
2018-09-03T19:01:21.502Z,3.80
2018-09-03T19:03:51.017Z,3.47
2018-09-03T19:06:19.518Z,3.33
2018-09-03T19:08:47.838Z,3.70
2018-09-03T19:11:15.401Z,3.63
2018-09-03T19:13:42.965Z,3.83
2018-09-03T19:16:10.530Z,3.70
2018-09-03T19:18:38.089Z,3.70
2018-09-03T19:21:05.652Z,3.85
2018-09-03T19:23:35.152Z,4.27
2018-09-03T19:26:02.712Z,4.30
2018-09-03T19:28:30.303Z,4.00
2018-09-03T19:30:59.609Z,5.30
2018-09-03T19:33:28.147Z,4.50
2018-09-03T19:35:55.706Z,4.27
2018-09-03T19:38:24.198Z,4.20
2018-09-03T19:40:51.761Z,4.43
2018-09-03T19:43:19.321Z,3.87
2018-09-03T19:45:47.655Z,4.00
2018-09-03T19:48:15.220Z,4.63
2018-09-03T19:50:42.788Z,3.62
2018-09-03T19:53:10.340Z,4.00
2018-09-03T19:55:38.862Z,3.77
2018-09-03T19:58:06.418Z,4.10
2018-09-03T20:00:35.188Z,4.13
2018-09-03T20:03:02.793Z,4.20
2018-09-03T20:05:30.355Z,4.10
2018-09-03T20:07:57.917Z,4.20
2018-09-03T20:10:26.429Z,4.80
2018-09-03T20:12:55.165Z,6.60
2018-09-03T20:15:22.734Z,4.90
2018-09-03T20:17:50.290Z,4.73
2018-09-03T20:20:17.853Z,5.10
2018-09-03T20:22:45.429Z,6.20
2018-09-03T20:25:12.998Z,5.87
2018-09-03T20:27:40.560Z,5.07
2018-09-03T20:30:09.806Z,5.30
2018-09-03T20:32:37.389Z,5.27
2018-09-03T20:35:04.940Z,4.87
2018-09-03T20:37:34.444Z,5.47
2018-09-03T20:40:01.993Z,5.80
2018-09-03T20:42:29.553Z,7.30
2018-09-03T20:44:57.109Z,5.63
2018-09-03T20:47:24.668Z,5.93
2018-09-03T20:49:52.225Z,4.53
2018-09-03T20:52:19.786Z,4.47
2018-09-03T20:54:47.335Z,5.10
2018-09-03T20:57:14.888Z,7.03
2018-09-03T20:59:42.462Z,13.70
2018-09-03T21:02:10.960Z,7.13
2018-09-03T21:04:38.519Z,5.10
2018-09-03T21:07:06.993Z,5.10
2018-09-03T21:09:34.549Z,4.70
2018-09-03T21:12:02.102Z,5.03
2018-09-03T21:14:29.697Z,4.97
2018-09-03T21:16:57.239Z,5.33
2018-09-03T21:19:24.829Z,4.80
2018-09-03T21:21:52.408Z,5.10
2018-09-03T21:24:21.913Z,4.90
2018-09-03T21:26:50.443Z,5.00
2018-09-03T21:29:17.992Z,4.43
2018-09-03T21:31:47.257Z,4.43
2018-09-03T21:34:14.817Z,5.17
2018-09-03T21:36:42.372Z,5.60
2018-09-03T21:39:11.923Z,5.53
2018-09-03T21:41:39.469Z,9.60
2018-09-03T21:44:07.790Z,5.67
2018-09-03T21:46:35.366Z,5.70
2018-09-03T21:49:02.956Z,5.10
2018-09-03T21:51:30.533Z,5.10
2018-09-03T21:54:00.088Z,4.73
2018-09-03T21:56:28.589Z,5.50
2018-09-03T21:58:56.146Z,4.70
2018-09-03T22:01:25.654Z,6.60
2018-09-03T22:03:53.977Z,8.70
2018-09-03T22:06:21.529Z,6.10
2018-09-03T22:08:49.081Z,5.70
2018-09-03T22:11:16.642Z,5.33
2018-09-03T22:13:44.222Z,5.10
2018-09-03T22:16:12.745Z,6.37
2018-09-03T22:18:40.317Z,5.50
2018-09-03T22:21:09.892Z,5.50
2018-09-03T22:23:39.409Z,4.73
2018-09-03T22:26:06.979Z,6.37
2018-09-03T22:28:34.548Z,5.87
2018-09-03T22:31:02.106Z,5.77
2018-09-03T22:33:29.662Z,4.93
2018-09-03T22:35:57.217Z,4.80
2018-09-03T22:38:24.798Z,5.17
2018-09-03T22:40:52.361Z,5.67
2018-09-03T22:43:19.925Z,5.33
2018-09-03T22:45:47.476Z,4.40
2018-09-03T22:48:15.038Z,5.40
2018-09-03T22:50:42.600Z,5.10
2018-09-03T22:53:10.163Z,4.97
2018-09-03T22:55:37.716Z,5.20
2018-09-03T22:58:05.271Z,4.87
2018-09-03T23:00:33.785Z,5.23
2018-09-03T23:03:02.125Z,5.40
2018-09-03T23:05:29.717Z,5.67
2018-09-03T23:07:59.188Z,5.70
2018-09-03T23:10:26.749Z,5.20
2018-09-03T23:12:54.325Z,5.90
2018-09-03T23:15:22.885Z,4.90
2018-09-03T23:17:50.449Z,5.10
2018-09-03T23:20:18.009Z,5.33
2018-09-03T23:22:46.514Z,5.70
2018-09-03T23:25:14.099Z,5.63
2018-09-03T23:27:41.664Z,5.00
2018-09-03T23:30:09.249Z,5.50
2018-09-03T23:32:36.820Z,5.47
2018-09-03T23:35:04.373Z,5.03
2018-09-03T23:37:31.930Z,5.20
2018-09-03T23:39:59.480Z,4.93
2018-09-03T23:42:27.033Z,5.00
2018-09-03T23:44:54.585Z,5.67
2018-09-03T23:47:22.146Z,5.23
2018-09-03T23:49:49.701Z,5.23
2018-09-03T23:52:17.336Z,5.60
2018-09-03T23:54:44.901Z,5.50
2018-09-03T23:57:12.461Z,5.50
2018-09-03T23:59:41.981Z,5.30
